sensor_id;sensor_type;location;lat;lon;timestamp;P1;durP1;ratioP1;P2;durP2;ratioP2
19111;SDS011;9688;51.906;8.376;2024-02-23T00:04:14;1.03;;;0.70;;
19111;SDS011;9688;51.906;8.376;2024-02-23T00:06:59;2.80;;;1.03;;
19111;SDS011;9688;51.906;8.376;2024-02-23T00:09:46;2.47;;;0.90;;
19111;SDS011;9688;51.906;8.376;2024-02-23T00:12:31;2.10;;;1.00;;
19111;SDS011;9688;51.906;8.376;2024-02-23T00:15:17;1.97;;;1.50;;
19111;SDS011;9688;51.906;8.376;2024-02-23T00:18:02;1.20;;;0.80;;
19111;SDS011;9688;51.906;8.376;2024-02-23T00:20:49;2.43;;;1.67;;
19111;SDS011;9688;51.906;8.376;2024-02-23T00:23:34;0.97;;;0.50;;
19111;SDS011;9688;51.906;8.376;2024-02-23T00:26:20;0.70;;;0.70;;
19111;SDS011;9688;51.906;8.376;2024-02-23T00:29:05;1.40;;;0.90;;
19111;SDS011;9688;51.906;8.376;2024-02-23T00:31:51;1.30;;;0.90;;
19111;SDS011;9688;51.906;8.376;2024-02-23T00:34:36;0.80;;;0.80;;
19111;SDS011;9688;51.906;8.376;2024-02-23T00:37:23;2.87;;;0.90;;
19111;SDS011;9688;51.906;8.376;2024-02-23T00:40:09;1.13;;;1.00;;
19111;SDS011;9688;51.906;8.376;2024-02-23T00:42:55;2.23;;;0.90;;
19111;SDS011;9688;51.906;8.376;2024-02-23T00:45:41;2.00;;;0.90;;
19111;SDS011;9688;51.906;8.376;2024-02-23T00:48:26;1.43;;;0.80;;
19111;SDS011;9688;51.906;8.376;2024-02-23T00:51:11;0.70;;;0.70;;
19111;SDS011;9688;51.906;8.376;2024-02-23T00:53:58;0.50;;;0.50;;
19111;SDS011;9688;51.906;8.376;2024-02-23T00:56:43;0.60;;;0.60;;
19111;SDS011;9688;51.906;8.376;2024-02-23T00:59:28;0.70;;;0.70;;
19111;SDS011;9688;51.906;8.376;2024-02-23T01:02:13;0.50;;;0.50;;
19111;SDS011;9688;51.906;8.376;2024-02-23T01:04:59;0.50;;;0.50;;
19111;SDS011;9688;51.906;8.376;2024-02-23T01:07:44;0.63;;;0.63;;
19111;SDS011;9688;51.906;8.376;2024-02-23T01:10:30;0.60;;;0.60;;
19111;SDS011;9688;51.906;8.376;2024-02-23T01:13:16;0.47;;;0.47;;
19111;SDS011;9688;51.906;8.376;2024-02-23T01:16:01;0.33;;;0.33;;
19111;SDS011;9688;51.906;8.376;2024-02-23T01:18:47;0.50;;;0.50;;
19111;SDS011;9688;51.906;8.376;2024-02-23T01:21:32;0.70;;;0.70;;
19111;SDS011;9688;51.906;8.376;2024-02-23T01:24:17;0.60;;;0.60;;
19111;SDS011;9688;51.906;8.376;2024-02-23T01:27:04;0.80;;;0.80;;
19111;SDS011;9688;51.906;8.376;2024-02-23T01:29:49;0.57;;;0.57;;
19111;SDS011;9688;51.906;8.376;2024-02-23T01:32:35;0.60;;;0.60;;
19111;SDS011;9688;51.906;8.376;2024-02-23T01:35:21;0.50;;;0.50;;
19111;SDS011;9688;51.906;8.376;2024-02-23T01:38:06;0.60;;;0.60;;
19111;SDS011;9688;51.906;8.376;2024-02-23T01:40:51;0.80;;;0.80;;
19111;SDS011;9688;51.906;8.376;2024-02-23T01:43:38;0.53;;;0.53;;
19111;SDS011;9688;51.906;8.376;2024-02-23T01:46:23;0.60;;;0.60;;
19111;SDS011;9688;51.906;8.376;2024-02-23T01:49:09;0.77;;;0.77;;
19111;SDS011;9688;51.906;8.376;2024-02-23T01:51:55;0.80;;;0.80;;
19111;SDS011;9688;51.906;8.376;2024-02-23T01:54:40;0.97;;;0.80;;
19111;SDS011;9688;51.906;8.376;2024-02-23T01:57:26;0.60;;;0.60;;
19111;SDS011;9688;51.906;8.376;2024-02-23T02:00:15;0.60;;;0.60;;
19111;SDS011;9688;51.906;8.376;2024-02-23T02:03:02;1.93;;;0.70;;
19111;SDS011;9688;51.906;8.376;2024-02-23T02:05:47;0.60;;;0.60;;
19111;SDS011;9688;51.906;8.376;2024-02-23T02:08:33;1.07;;;1.07;;
19111;SDS011;9688;51.906;8.376;2024-02-23T02:11:19;1.20;;;1.10;;
19111;SDS011;9688;51.906;8.376;2024-02-23T02:14:05;1.77;;;1.67;;
19111;SDS011;9688;51.906;8.376;2024-02-23T02:16:52;2.60;;;1.27;;
19111;SDS011;9688;51.906;8.376;2024-02-23T02:19:37;1.50;;;1.50;;
19111;SDS011;9688;51.906;8.376;2024-02-23T02:22:22;2.47;;;2.37;;
19111;SDS011;9688;51.906;8.376;2024-02-23T02:25:07;3.03;;;1.80;;
19111;SDS011;9688;51.906;8.376;2024-02-23T02:27:53;1.90;;;1.70;;
19111;SDS011;9688;51.906;8.376;2024-02-23T02:30:39;1.70;;;1.70;;
19111;SDS011;9688;51.906;8.376;2024-02-23T02:33:26;1.90;;;1.80;;
19111;SDS011;9688;51.906;8.376;2024-02-23T02:36:11;1.87;;;1.77;;
19111;SDS011;9688;51.906;8.376;2024-02-23T02:38:56;1.97;;;1.87;;
19111;SDS011;9688;51.906;8.376;2024-02-23T02:41:41;1.83;;;1.80;;
19111;SDS011;9688;51.906;8.376;2024-02-23T02:44:27;2.00;;;1.90;;
19111;SDS011;9688;51.906;8.376;2024-02-23T02:47:14;2.80;;;1.97;;
19111;SDS011;9688;51.906;8.376;2024-02-23T02:50:00;3.47;;;1.60;;
19111;SDS011;9688;51.906;8.376;2024-02-23T02:52:45;2.17;;;1.77;;
19111;SDS011;9688;51.906;8.376;2024-02-23T02:55:31;3.07;;;1.80;;
19111;SDS011;9688;51.906;8.376;2024-02-23T02:58:16;2.40;;;2.00;;
19111;SDS011;9688;51.906;8.376;2024-02-23T03:01:01;1.80;;;1.70;;
19111;SDS011;9688;51.906;8.376;2024-02-23T03:03:47;1.90;;;1.53;;
19111;SDS011;9688;51.906;8.376;2024-02-23T03:06:33;1.50;;;1.40;;
19111;SDS011;9688;51.906;8.376;2024-02-23T03:09:18;4.47;;;1.97;;
19111;SDS011;9688;51.906;8.376;2024-02-23T03:12:04;4.00;;;1.57;;
19111;SDS011;9688;51.906;8.376;2024-02-23T03:14:49;1.50;;;1.40;;
19111;SDS011;9688;51.906;8.376;2024-02-23T03:17:34;1.33;;;1.20;;
19111;SDS011;9688;51.906;8.376;2024-02-23T03:20:20;1.23;;;1.23;;
19111;SDS011;9688;51.906;8.376;2024-02-23T03:23:06;4.47;;;1.40;;
19111;SDS011;9688;51.906;8.376;2024-02-23T03:25:52;2.87;;;1.13;;
19111;SDS011;9688;51.906;8.376;2024-02-23T03:28:37;1.30;;;1.00;;
19111;SDS011;9688;51.906;8.376;2024-02-23T03:31:23;3.60;;;1.30;;
19111;SDS011;9688;51.906;8.376;2024-02-23T03:34:08;3.47;;;1.37;;
19111;SDS011;9688;51.906;8.376;2024-02-23T03:36:53;2.03;;;1.63;;
19111;SDS011;9688;51.906;8.376;2024-02-23T03:39:40;2.47;;;1.30;;
19111;SDS011;9688;51.906;8.376;2024-02-23T03:42:25;1.17;;;1.10;;
19111;SDS011;9688;51.906;8.376;2024-02-23T03:45:11;4.67;;;1.40;;
19111;SDS011;9688;51.906;8.376;2024-02-23T03:47:56;4.83;;;1.20;;
19111;SDS011;9688;51.906;8.376;2024-02-23T03:50:42;1.97;;;1.30;;
19111;SDS011;9688;51.906;8.376;2024-02-23T03:53:27;1.93;;;1.10;;
19111;SDS011;9688;51.906;8.376;2024-02-23T03:56:13;2.10;;;1.20;;
19111;SDS011;9688;51.906;8.376;2024-02-23T03:58:59;8.97;;;1.50;;
19111;SDS011;9688;51.906;8.376;2024-02-23T04:01:44;2.23;;;1.10;;
19111;SDS011;9688;51.906;8.376;2024-02-23T04:04:29;2.33;;;1.07;;
19111;SDS011;9688;51.906;8.376;2024-02-23T04:07:15;2.57;;;1.20;;
19111;SDS011;9688;51.906;8.376;2024-02-23T04:10:00;2.40;;;1.17;;
19111;SDS011;9688;51.906;8.376;2024-02-23T04:13:32;1.77;;;1.30;;
19111;SDS011;9688;51.906;8.376;2024-02-23T04:16:18;2.37;;;1.37;;
19111;SDS011;9688;51.906;8.376;2024-02-23T04:19:07;3.03;;;1.23;;
19111;SDS011;9688;51.906;8.376;2024-02-23T04:22:19;5.40;;;1.10;;
19111;SDS011;9688;51.906;8.376;2024-02-23T04:25:04;1.13;;;0.87;;
19111;SDS011;9688;51.906;8.376;2024-02-23T04:27:50;4.33;;;1.23;;
19111;SDS011;9688;51.906;8.376;2024-02-23T04:30:36;1.73;;;1.60;;
19111;SDS011;9688;51.906;8.376;2024-02-23T04:33:22;4.07;;;1.10;;
19111;SDS011;9688;51.906;8.376;2024-02-23T04:36:08;6.10;;;1.37;;
19111;SDS011;9688;51.906;8.376;2024-02-23T04:38:53;4.23;;;1.23;;
19111;SDS011;9688;51.906;8.376;2024-02-23T04:41:38;3.93;;;1.30;;
19111;SDS011;9688;51.906;8.376;2024-02-23T04:44:23;3.47;;;1.17;;
19111;SDS011;9688;51.906;8.376;2024-02-23T04:47:10;3.80;;;1.30;;
19111;SDS011;9688;51.906;8.376;2024-02-23T04:49:55;1.90;;;1.20;;
19111;SDS011;9688;51.906;8.376;2024-02-23T04:52:41;5.80;;;1.27;;
19111;SDS011;9688;51.906;8.376;2024-02-23T04:55:26;7.10;;;2.00;;
19111;SDS011;9688;51.906;8.376;2024-02-23T04:58:11;4.90;;;1.60;;
19111;SDS011;9688;51.906;8.376;2024-02-23T05:00:57;3.87;;;1.40;;
19111;SDS011;9688;51.906;8.376;2024-02-23T05:03:44;4.77;;;1.40;;
19111;SDS011;9688;51.906;8.376;2024-02-23T05:06:29;2.10;;;1.53;;
19111;SDS011;9688;51.906;8.376;2024-02-23T05:09:15;4.77;;;1.20;;
19111;SDS011;9688;51.906;8.376;2024-02-23T05:12:00;2.57;;;1.80;;
19111;SDS011;9688;51.906;8.376;2024-02-23T05:14:45;2.93;;;1.50;;
19111;SDS011;9688;51.906;8.376;2024-02-23T05:17:30;2.30;;;1.60;;
19111;SDS011;9688;51.906;8.376;2024-02-23T05:20:17;6.13;;;1.70;;
19111;SDS011;9688;51.906;8.376;2024-02-23T05:23:04;3.90;;;1.90;;
19111;SDS011;9688;51.906;8.376;2024-02-23T05:25:49;3.47;;;1.50;;
19111;SDS011;9688;51.906;8.376;2024-02-23T05:28:34;4.93;;;1.60;;
19111;SDS011;9688;51.906;8.376;2024-02-23T05:31:19;5.30;;;1.70;;
19111;SDS011;9688;51.906;8.376;2024-02-23T05:34:05;2.30;;;1.90;;
19111;SDS011;9688;51.906;8.376;2024-02-23T05:36:52;1.67;;;1.57;;
19111;SDS011;9688;51.906;8.376;2024-02-23T05:39:37;2.40;;;1.23;;
19111;SDS011;9688;51.906;8.376;2024-02-23T05:42:22;8.53;;;1.93;;
19111;SDS011;9688;51.906;8.376;2024-02-23T05:45:08;3.93;;;1.50;;
19111;SDS011;9688;51.906;8.376;2024-02-23T05:47:54;5.30;;;1.60;;
19111;SDS011;9688;51.906;8.376;2024-02-23T05:50:39;5.63;;;2.00;;
19111;SDS011;9688;51.906;8.376;2024-02-23T05:53:25;3.63;;;1.47;;
19111;SDS011;9688;51.906;8.376;2024-02-23T05:56:15;6.90;;;2.53;;
19111;SDS011;9688;51.906;8.376;2024-02-23T05:59:00;3.10;;;1.43;;
19111;SDS011;9688;51.906;8.376;2024-02-23T06:01:46;3.10;;;1.40;;
19111;SDS011;9688;51.906;8.376;2024-02-23T06:04:31;7.13;;;1.50;;
19111;SDS011;9688;51.906;8.376;2024-02-23T06:13:05;3.10;;;1.43;;
19111;SDS011;9688;51.906;8.376;2024-02-23T06:15:51;2.30;;;1.40;;
19111;SDS011;9688;51.906;8.376;2024-02-23T06:18:37;4.10;;;1.40;;
19111;SDS011;9688;51.906;8.376;2024-02-23T06:21:25;1.33;;;1.20;;
19111;SDS011;9688;51.906;8.376;2024-02-23T06:24:10;2.90;;;1.20;;
19111;SDS011;9688;51.906;8.376;2024-02-23T06:26:55;3.80;;;1.83;;
19111;SDS011;9688;51.906;8.376;2024-02-23T06:29:43;2.50;;;1.60;;
19111;SDS011;9688;51.906;8.376;2024-02-23T06:32:28;4.30;;;1.30;;
19111;SDS011;9688;51.906;8.376;2024-02-23T06:35:13;4.33;;;1.20;;
19111;SDS011;9688;51.906;8.376;2024-02-23T06:37:59;5.30;;;1.60;;
19111;SDS011;9688;51.906;8.376;2024-02-23T06:40:44;2.90;;;1.20;;
19111;SDS011;9688;51.906;8.376;2024-02-23T06:43:29;4.57;;;1.10;;
19111;SDS011;9688;51.906;8.376;2024-02-23T06:46:16;2.73;;;1.53;;
19111;SDS011;9688;51.906;8.376;2024-02-23T06:49:03;3.23;;;1.30;;
19111;SDS011;9688;51.906;8.376;2024-02-23T06:51:49;2.70;;;1.10;;
19111;SDS011;9688;51.906;8.376;2024-02-23T06:54:35;4.77;;;1.50;;
19111;SDS011;9688;51.906;8.376;2024-02-23T06:57:20;4.23;;;1.30;;
19111;SDS011;9688;51.906;8.376;2024-02-23T07:00:08;3.10;;;1.40;;
19111;SDS011;9688;51.906;8.376;2024-02-23T07:02:55;2.23;;;1.00;;
19111;SDS011;9688;51.906;8.376;2024-02-23T07:05:42;1.33;;;1.10;;
19111;SDS011;9688;51.906;8.376;2024-02-23T07:08:28;2.03;;;1.20;;
19111;SDS011;9688;51.906;8.376;2024-02-23T07:11:14;2.77;;;1.23;;
19111;SDS011;9688;51.906;8.376;2024-02-23T07:14:00;6.70;;;1.20;;
19111;SDS011;9688;51.906;8.376;2024-02-23T07:16:45;2.97;;;1.30;;
19111;SDS011;9688;51.906;8.376;2024-02-23T07:19:32;1.33;;;1.00;;
19111;SDS011;9688;51.906;8.376;2024-02-23T07:22:18;4.37;;;1.43;;
19111;SDS011;9688;51.906;8.376;2024-02-23T07:25:04;1.60;;;1.20;;
19111;SDS011;9688;51.906;8.376;2024-02-23T07:27:50;3.70;;;1.07;;
19111;SDS011;9688;51.906;8.376;2024-02-23T07:30:35;4.67;;;1.20;;
19111;SDS011;9688;51.906;8.376;2024-02-23T07:33:20;3.10;;;1.10;;
19111;SDS011;9688;51.906;8.376;2024-02-23T07:36:07;3.37;;;1.20;;
19111;SDS011;9688;51.906;8.376;2024-02-23T07:38:58;6.73;;;1.47;;
19111;SDS011;9688;51.906;8.376;2024-02-23T07:41:45;2.83;;;1.20;;
19111;SDS011;9688;51.906;8.376;2024-02-23T07:44:30;3.77;;;1.17;;
19111;SDS011;9688;51.906;8.376;2024-02-23T07:47:15;3.87;;;1.40;;
19111;SDS011;9688;51.906;8.376;2024-02-23T07:50:01;2.93;;;1.13;;
19111;SDS011;9688;51.906;8.376;2024-02-23T07:52:48;1.70;;;1.07;;
19111;SDS011;9688;51.906;8.376;2024-02-23T07:55:33;2.23;;;1.10;;
19111;SDS011;9688;51.906;8.376;2024-02-23T07:58:18;5.10;;;1.10;;
19111;SDS011;9688;51.906;8.376;2024-02-23T08:01:05;4.50;;;1.63;;
19111;SDS011;9688;51.906;8.376;2024-02-23T08:03:50;3.23;;;0.93;;
19111;SDS011;9688;51.906;8.376;2024-02-23T08:06:35;2.57;;;1.10;;
19111;SDS011;9688;51.906;8.376;2024-02-23T08:09:22;1.77;;;1.00;;
19111;SDS011;9688;51.906;8.376;2024-02-23T08:12:07;3.23;;;1.17;;
19111;SDS011;9688;51.906;8.376;2024-02-23T08:14:53;3.93;;;1.20;;
19111;SDS011;9688;51.906;8.376;2024-02-23T08:17:38;2.83;;;1.07;;
19111;SDS011;9688;51.906;8.376;2024-02-23T08:20:24;6.33;;;1.30;;
19111;SDS011;9688;51.906;8.376;2024-02-23T08:23:09;4.60;;;1.23;;
19111;SDS011;9688;51.906;8.376;2024-02-23T08:25:56;1.97;;;1.10;;
19111;SDS011;9688;51.906;8.376;2024-02-23T08:28:42;4.43;;;1.20;;
19111;SDS011;9688;51.906;8.376;2024-02-23T08:31:28;2.43;;;1.10;;
19111;SDS011;9688;51.906;8.376;2024-02-23T08:34:13;5.40;;;1.10;;
19111;SDS011;9688;51.906;8.376;2024-02-23T08:36:58;1.67;;;1.20;;
19111;SDS011;9688;51.906;8.376;2024-02-23T08:39:43;2.17;;;1.20;;
19111;SDS011;9688;51.906;8.376;2024-02-23T08:42:30;3.37;;;1.20;;
19111;SDS011;9688;51.906;8.376;2024-02-23T08:45:15;1.60;;;1.00;;
19111;SDS011;9688;51.906;8.376;2024-02-23T08:48:01;3.40;;;1.00;;
19111;SDS011;9688;51.906;8.376;2024-02-23T08:50:47;3.17;;;1.00;;
19111;SDS011;9688;51.906;8.376;2024-02-23T08:53:32;2.30;;;1.07;;
19111;SDS011;9688;51.906;8.376;2024-02-23T08:56:18;5.23;;;1.30;;
19111;SDS011;9688;51.906;8.376;2024-02-23T08:59:04;4.53;;;0.90;;
19111;SDS011;9688;51.906;8.376;2024-02-23T09:01:50;2.23;;;1.03;;
19111;SDS011;9688;51.906;8.376;2024-02-23T09:04:35;4.27;;;1.33;;
19111;SDS011;9688;51.906;8.376;2024-02-23T09:07:21;3.27;;;1.30;;
19111;SDS011;9688;51.906;8.376;2024-02-23T09:10:06;1.03;;;1.00;;
19111;SDS011;9688;51.906;8.376;2024-02-23T09:12:52;5.93;;;1.33;;
19111;SDS011;9688;51.906;8.376;2024-02-23T09:15:39;3.27;;;1.00;;
19111;SDS011;9688;51.906;8.376;2024-02-23T09:18:25;4.63;;;0.90;;
19111;SDS011;9688;51.906;8.376;2024-02-23T09:21:10;3.60;;;1.17;;
19111;SDS011;9688;51.906;8.376;2024-02-23T09:23:56;6.30;;;1.30;;
19111;SDS011;9688;51.906;8.376;2024-02-23T09:26:46;1.67;;;1.07;;
19111;SDS011;9688;51.906;8.376;2024-02-23T09:29:31;2.60;;;1.33;;
19111;SDS011;9688;51.906;8.376;2024-02-23T09:32:18;3.30;;;1.30;;
19111;SDS011;9688;51.906;8.376;2024-02-23T09:39:06;3.13;;;1.10;;
19111;SDS011;9688;51.906;8.376;2024-02-23T09:41:51;1.40;;;1.13;;
19111;SDS011;9688;51.906;8.376;2024-02-23T09:44:39;2.37;;;1.00;;
19111;SDS011;9688;51.906;8.376;2024-02-23T09:47:30;1.93;;;1.40;;
19111;SDS011;9688;51.906;8.376;2024-02-23T09:50:16;7.90;;;2.07;;
19111;SDS011;9688;51.906;8.376;2024-02-23T09:53:04;3.30;;;1.10;;
19111;SDS011;9688;51.906;8.376;2024-02-23T09:55:52;4.43;;;1.27;;
19111;SDS011;9688;51.906;8.376;2024-02-23T09:58:39;3.13;;;1.43;;
19111;SDS011;9688;51.906;8.376;2024-02-23T10:01:27;2.27;;;1.10;;
19111;SDS011;9688;51.906;8.376;2024-02-23T10:04:18;0.97;;;0.87;;
19111;SDS011;9688;51.906;8.376;2024-02-23T10:07:04;6.47;;;1.40;;
19111;SDS011;9688;51.906;8.376;2024-02-23T10:09:52;1.13;;;1.07;;
19111;SDS011;9688;51.906;8.376;2024-02-23T10:12:39;2.23;;;1.10;;
19111;SDS011;9688;51.906;8.376;2024-02-23T10:15:25;2.27;;;1.30;;
19111;SDS011;9688;51.906;8.376;2024-02-23T10:18:11;4.97;;;1.20;;
19111;SDS011;9688;51.906;8.376;2024-02-23T10:20:58;2.03;;;1.50;;
19111;SDS011;9688;51.906;8.376;2024-02-23T10:23:44;3.60;;;1.30;;
19111;SDS011;9688;51.906;8.376;2024-02-23T10:26:30;1.80;;;1.10;;
19111;SDS011;9688;51.906;8.376;2024-02-23T10:29:16;2.97;;;1.53;;
19111;SDS011;9688;51.906;8.376;2024-02-23T10:32:02;3.87;;;1.20;;
19111;SDS011;9688;51.906;8.376;2024-02-23T10:34:50;2.70;;;1.40;;
19111;SDS011;9688;51.906;8.376;2024-02-23T10:37:40;6.93;;;1.60;;
19111;SDS011;9688;51.906;8.376;2024-02-23T10:40:27;4.37;;;1.27;;
19111;SDS011;9688;51.906;8.376;2024-02-23T10:43:19;3.37;;;1.30;;
19111;SDS011;9688;51.906;8.376;2024-02-23T10:46:04;1.37;;;1.17;;
19111;SDS011;9688;51.906;8.376;2024-02-23T10:48:53;4.13;;;1.13;;
19111;SDS011;9688;51.906;8.376;2024-02-23T10:51:40;3.77;;;1.50;;
19111;SDS011;9688;51.906;8.376;2024-02-23T10:54:28;2.83;;;1.00;;
19111;SDS011;9688;51.906;8.376;2024-02-23T10:57:16;1.50;;;1.40;;
19111;SDS011;9688;51.906;8.376;2024-02-23T11:00:02;2.17;;;1.20;;
19111;SDS011;9688;51.906;8.376;2024-02-23T11:02:53;2.93;;;1.23;;
19111;SDS011;9688;51.906;8.376;2024-02-23T11:05:44;1.50;;;1.20;;
19111;SDS011;9688;51.906;8.376;2024-02-23T11:08:34;1.53;;;1.43;;
19111;SDS011;9688;51.906;8.376;2024-02-23T11:11:23;1.90;;;1.00;;
19111;SDS011;9688;51.906;8.376;2024-02-23T11:14:09;4.27;;;1.37;;
19111;SDS011;9688;51.906;8.376;2024-02-23T11:16:54;2.00;;;0.90;;
19111;SDS011;9688;51.906;8.376;2024-02-23T11:19:39;3.07;;;1.27;;
19111;SDS011;9688;51.906;8.376;2024-02-23T11:22:25;2.30;;;1.50;;
19111;SDS011;9688;51.906;8.376;2024-02-23T11:25:11;5.37;;;1.37;;
19111;SDS011;9688;51.906;8.376;2024-02-23T11:28:00;4.73;;;1.37;;
19111;SDS011;9688;51.906;8.376;2024-02-23T11:30:45;5.23;;;1.50;;
19111;SDS011;9688;51.906;8.376;2024-02-23T11:33:34;2.57;;;1.40;;
19111;SDS011;9688;51.906;8.376;2024-02-23T11:36:22;4.87;;;1.20;;
19111;SDS011;9688;51.906;8.376;2024-02-23T11:39:09;4.13;;;1.30;;
19111;SDS011;9688;51.906;8.376;2024-02-23T11:41:56;3.13;;;1.20;;
19111;SDS011;9688;51.906;8.376;2024-02-23T11:44:46;3.63;;;1.30;;
19111;SDS011;9688;51.906;8.376;2024-02-23T11:47:31;1.60;;;1.40;;
19111;SDS011;9688;51.906;8.376;2024-02-23T11:50:17;2.50;;;1.20;;
19111;SDS011;9688;51.906;8.376;2024-02-23T11:53:04;3.17;;;1.20;;
19111;SDS011;9688;51.906;8.376;2024-02-23T11:55:50;2.60;;;1.00;;
19111;SDS011;9688;51.906;8.376;2024-02-23T11:58:37;4.77;;;1.33;;
19111;SDS011;9688;51.906;8.376;2024-02-23T12:01:24;1.97;;;1.30;;
19111;SDS011;9688;51.906;8.376;2024-02-23T12:04:10;2.57;;;1.40;;
19111;SDS011;9688;51.906;8.376;2024-02-23T12:06:56;2.47;;;1.30;;
19111;SDS011;9688;51.906;8.376;2024-02-23T12:09:41;2.60;;;1.20;;
19111;SDS011;9688;51.906;8.376;2024-02-23T12:12:27;5.50;;;1.20;;
19111;SDS011;9688;51.906;8.376;2024-02-23T12:15:13;2.93;;;1.40;;
19111;SDS011;9688;51.906;8.376;2024-02-23T12:18:04;1.93;;;1.20;;
19111;SDS011;9688;51.906;8.376;2024-02-23T12:20:50;6.13;;;1.50;;
19111;SDS011;9688;51.906;8.376;2024-02-23T12:23:39;2.47;;;1.20;;
19111;SDS011;9688;51.906;8.376;2024-02-23T12:26:25;3.43;;;1.30;;
19111;SDS011;9688;51.906;8.376;2024-02-23T12:29:13;3.17;;;1.53;;
19111;SDS011;9688;51.906;8.376;2024-02-23T12:32:04;2.00;;;1.33;;
19111;SDS011;9688;51.906;8.376;2024-02-23T12:34:53;1.60;;;0.90;;
19111;SDS011;9688;51.906;8.376;2024-02-23T12:37:39;2.07;;;1.13;;
19111;SDS011;9688;51.906;8.376;2024-02-23T12:40:25;2.57;;;1.20;;
19111;SDS011;9688;51.906;8.376;2024-02-23T12:43:11;1.93;;;1.30;;
19111;SDS011;9688;51.906;8.376;2024-02-23T12:45:57;1.17;;;1.10;;
19111;SDS011;9688;51.906;8.376;2024-02-23T12:48:42;5.20;;;1.37;;
19111;SDS011;9688;51.906;8.376;2024-02-23T12:51:29;1.63;;;1.53;;
19111;SDS011;9688;51.906;8.376;2024-02-23T12:58:02;1.47;;;1.33;;
19111;SDS011;9688;51.906;8.376;2024-02-23T13:00:47;2.43;;;1.20;;
19111;SDS011;9688;51.906;8.376;2024-02-23T13:03:33;3.80;;;1.07;;
19111;SDS011;9688;51.906;8.376;2024-02-23T13:06:18;2.57;;;1.07;;
19111;SDS011;9688;51.906;8.376;2024-02-23T13:09:05;0.93;;;0.87;;
19111;SDS011;9688;51.906;8.376;2024-02-23T13:11:52;4.23;;;1.10;;
19111;SDS011;9688;51.906;8.376;2024-02-23T13:14:38;1.40;;;0.90;;
19111;SDS011;9688;51.906;8.376;2024-02-23T13:17:24;1.13;;;1.00;;
19111;SDS011;9688;51.906;8.376;2024-02-23T13:20:10;5.43;;;1.20;;
19111;SDS011;9688;51.906;8.376;2024-02-23T13:22:57;1.57;;;0.97;;
19111;SDS011;9688;51.906;8.376;2024-02-23T13:25:44;3.70;;;1.00;;
19111;SDS011;9688;51.906;8.376;2024-02-23T13:28:30;4.07;;;1.13;;
19111;SDS011;9688;51.906;8.376;2024-02-23T13:31:15;2.60;;;1.30;;
19111;SDS011;9688;51.906;8.376;2024-02-23T13:34:01;1.47;;;1.20;;
19111;SDS011;9688;51.906;8.376;2024-02-23T13:36:46;3.83;;;1.10;;
19111;SDS011;9688;51.906;8.376;2024-02-23T13:39:34;3.30;;;1.30;;
19111;SDS011;9688;51.906;8.376;2024-02-23T13:42:20;1.97;;;1.30;;
19111;SDS011;9688;51.906;8.376;2024-02-23T13:45:06;0.80;;;0.80;;
19111;SDS011;9688;51.906;8.376;2024-02-23T13:47:56;3.90;;;1.40;;
19111;SDS011;9688;51.906;8.376;2024-02-23T13:50:42;3.23;;;1.00;;
19111;SDS011;9688;51.906;8.376;2024-02-23T13:53:28;2.30;;;1.10;;
19111;SDS011;9688;51.906;8.376;2024-02-23T13:56:15;2.63;;;1.13;;
19111;SDS011;9688;51.906;8.376;2024-02-23T13:59:02;2.13;;;1.20;;
19111;SDS011;9688;51.906;8.376;2024-02-23T14:01:47;4.53;;;1.57;;
19111;SDS011;9688;51.906;8.376;2024-02-23T14:04:33;4.20;;;1.40;;
19111;SDS011;9688;51.906;8.376;2024-02-23T14:07:20;2.50;;;1.47;;
19111;SDS011;9688;51.906;8.376;2024-02-23T14:10:05;1.87;;;1.13;;
19111;SDS011;9688;51.906;8.376;2024-02-23T14:12:52;1.53;;;0.97;;
19111;SDS011;9688;51.906;8.376;2024-02-23T14:15:40;2.50;;;1.03;;
19111;SDS011;9688;51.906;8.376;2024-02-23T14:18:26;4.47;;;1.10;;
19111;SDS011;9688;51.906;8.376;2024-02-23T14:21:11;2.47;;;1.00;;
19111;SDS011;9688;51.906;8.376;2024-02-23T14:23:58;1.40;;;1.30;;
19111;SDS011;9688;51.906;8.376;2024-02-23T14:26:43;1.80;;;1.50;;
19111;SDS011;9688;51.906;8.376;2024-02-23T14:29:28;2.97;;;1.30;;
19111;SDS011;9688;51.906;8.376;2024-02-23T14:32:15;1.27;;;1.00;;
19111;SDS011;9688;51.906;8.376;2024-02-23T14:35:01;2.70;;;1.20;;
19111;SDS011;9688;51.906;8.376;2024-02-23T14:37:47;0.97;;;0.93;;
19111;SDS011;9688;51.906;8.376;2024-02-23T14:40:33;1.80;;;1.13;;
19111;SDS011;9688;51.906;8.376;2024-02-23T14:43:18;3.13;;;1.20;;
19111;SDS011;9688;51.906;8.376;2024-02-23T14:46:03;2.73;;;1.10;;
19111;SDS011;9688;51.906;8.376;2024-02-23T14:48:51;1.00;;;1.00;;
19111;SDS011;9688;51.906;8.376;2024-02-23T14:51:37;1.13;;;0.93;;
19111;SDS011;9688;51.906;8.376;2024-02-23T14:54:26;1.77;;;0.90;;
19111;SDS011;9688;51.906;8.376;2024-02-23T14:57:13;2.13;;;1.20;;
19111;SDS011;9688;51.906;8.376;2024-02-23T14:59:58;1.93;;;1.10;;
19111;SDS011;9688;51.906;8.376;2024-02-23T15:02:43;2.83;;;1.23;;
19111;SDS011;9688;51.906;8.376;2024-02-23T15:05:31;1.43;;;1.07;;
19111;SDS011;9688;51.906;8.376;2024-02-23T15:08:16;2.47;;;1.30;;
19111;SDS011;9688;51.906;8.376;2024-02-23T15:11:01;1.93;;;1.50;;
19111;SDS011;9688;51.906;8.376;2024-02-23T15:13:47;2.50;;;1.57;;
19111;SDS011;9688;51.906;8.376;2024-02-23T15:16:35;6.63;;;1.13;;
19111;SDS011;9688;51.906;8.376;2024-02-23T15:19:21;2.40;;;1.10;;
19111;SDS011;9688;51.906;8.376;2024-02-23T15:22:08;4.87;;;1.20;;
19111;SDS011;9688;51.906;8.376;2024-02-23T15:24:57;1.67;;;1.17;;
19111;SDS011;9688;51.906;8.376;2024-02-23T15:27:43;2.90;;;1.10;;
19111;SDS011;9688;51.906;8.376;2024-02-23T15:30:29;2.63;;;1.20;;
19111;SDS011;9688;51.906;8.376;2024-02-23T15:33:14;2.63;;;1.33;;
19111;SDS011;9688;51.906;8.376;2024-02-23T15:35:59;3.87;;;1.50;;
19111;SDS011;9688;51.906;8.376;2024-02-23T15:38:49;2.60;;;1.27;;
19111;SDS011;9688;51.906;8.376;2024-02-23T15:41:45;1.73;;;1.10;;
19111;SDS011;9688;51.906;8.376;2024-02-23T15:44:30;2.27;;;1.40;;
19111;SDS011;9688;51.906;8.376;2024-02-23T15:47:18;2.97;;;1.30;;
19111;SDS011;9688;51.906;8.376;2024-02-23T15:50:05;2.87;;;1.10;;
19111;SDS011;9688;51.906;8.376;2024-02-23T15:52:51;1.90;;;1.20;;
19111;SDS011;9688;51.906;8.376;2024-02-23T15:55:38;3.17;;;1.20;;
19111;SDS011;9688;51.906;8.376;2024-02-23T15:58:24;1.07;;;1.03;;
19111;SDS011;9688;51.906;8.376;2024-02-23T16:01:09;4.43;;;1.47;;
19111;SDS011;9688;51.906;8.376;2024-02-23T16:03:55;2.10;;;1.00;;
19111;SDS011;9688;51.906;8.376;2024-02-23T16:06:41;3.00;;;1.73;;
19111;SDS011;9688;51.906;8.376;2024-02-23T16:09:26;1.40;;;1.30;;
19111;SDS011;9688;51.906;8.376;2024-02-23T16:12:16;4.07;;;1.50;;
19111;SDS011;9688;51.906;8.376;2024-02-23T16:15:02;2.97;;;1.50;;
19111;SDS011;9688;51.906;8.376;2024-02-23T16:17:48;3.33;;;1.40;;
19111;SDS011;9688;51.906;8.376;2024-02-23T16:20:36;4.30;;;1.70;;
19111;SDS011;9688;51.906;8.376;2024-02-23T16:23:21;2.90;;;1.50;;
19111;SDS011;9688;51.906;8.376;2024-02-23T16:26:07;3.10;;;1.93;;
19111;SDS011;9688;51.906;8.376;2024-02-23T16:28:54;3.03;;;1.47;;
19111;SDS011;9688;51.906;8.376;2024-02-23T16:31:42;3.13;;;1.57;;
19111;SDS011;9688;51.906;8.376;2024-02-23T16:34:27;1.60;;;1.00;;
19111;SDS011;9688;51.906;8.376;2024-02-23T16:37:14;2.93;;;1.50;;
19111;SDS011;9688;51.906;8.376;2024-02-23T16:39:59;1.10;;;1.10;;
19111;SDS011;9688;51.906;8.376;2024-02-23T16:42:45;3.03;;;1.40;;
19111;SDS011;9688;51.906;8.376;2024-02-23T16:45:32;5.20;;;1.53;;
19111;SDS011;9688;51.906;8.376;2024-02-23T16:48:17;4.63;;;1.23;;
19111;SDS011;9688;51.906;8.376;2024-02-23T16:51:03;3.20;;;1.90;;
19111;SDS011;9688;51.906;8.376;2024-02-23T16:53:49;2.23;;;1.30;;
19111;SDS011;9688;51.906;8.376;2024-02-23T16:56:35;1.40;;;1.30;;
19111;SDS011;9688;51.906;8.376;2024-02-23T16:59:21;1.83;;;1.20;;
19111;SDS011;9688;51.906;8.376;2024-02-23T17:02:07;4.10;;;1.60;;
19111;SDS011;9688;51.906;8.376;2024-02-23T17:04:54;2.20;;;0.97;;
19111;SDS011;9688;51.906;8.376;2024-02-23T17:07:44;2.03;;;1.33;;
19111;SDS011;9688;51.906;8.376;2024-02-23T17:10:29;3.07;;;1.70;;
19111;SDS011;9688;51.906;8.376;2024-02-23T17:13:15;2.23;;;1.50;;